sensor_id;sensor_type;location;lat;lon;timestamp;pressure;altitude;pressure_sealevel;temperature;humidity
7376;BME280;3728;42.266;24.944;2023-02-26T00:01:40;98564.06;;;12.47;75.35
7376;BME280;3728;42.266;24.944;2023-02-26T00:04:08;98558.16;;;12.50;75.29
7376;BME280;3728;42.266;24.944;2023-02-26T00:06:39;98551.97;;;12.58;75.06
7376;BME280;3728;42.266;24.944;2023-02-26T00:09:22;98562.34;;;12.67;74.27
7376;BME280;3728;42.266;24.944;2023-02-26T00:11:50;98560.63;;;12.59;74.88
7376;BME280;3728;42.266;24.944;2023-02-26T00:14:18;98548.50;;;12.54;75.07
7376;BME280;3728;42.266;24.944;2023-02-26T00:16:54;98550.88;;;12.59;74.66
7376;BME280;3728;42.266;24.944;2023-02-26T00:19:24;98552.19;;;12.53;74.65
7376;BME280;3728;42.266;24.944;2023-02-26T00:21:51;98561.63;;;12.54;75.34
7376;BME280;3728;42.266;24.944;2023-02-26T00:24:19;98557.31;;;12.62;74.97
7376;BME280;3728;42.266;24.944;2023-02-26T00:26:46;98561.81;;;12.61;74.66
7376;BME280;3728;42.266;24.944;2023-02-26T00:29:14;98564.06;;;12.47;74.91
7376;BME280;3728;42.266;24.944;2023-02-26T00:31:42;98561.91;;;12.37;76.16
7376;BME280;3728;42.266;24.944;2023-02-26T00:34:11;98559.16;;;12.46;75.56
7376;BME280;3728;42.266;24.944;2023-02-26T00:42:48;98548.66;;;12.61;75.22
7376;BME280;3728;42.266;24.944;2023-02-26T00:45:17;98555.19;;;12.67;74.84
7376;BME280;3728;42.266;24.944;2023-02-26T00:50:24;98543.94;;;12.67;75.22
7376;BME280;3728;42.266;24.944;2023-02-26T00:55:47;98530.53;;;12.72;74.33
7376;BME280;3728;42.266;24.944;2023-02-26T00:58:15;98533.09;;;12.68;74.75
7376;BME280;3728;42.266;24.944;2023-02-26T01:00:45;98537.16;;;12.66;74.78
7376;BME280;3728;42.266;24.944;2023-02-26T01:03:13;98542.56;;;12.57;75.39
7376;BME280;3728;42.266;24.944;2023-02-26T01:05:40;98551.78;;;12.51;75.54
7376;BME280;3728;42.266;24.944;2023-02-26T01:08:17;98537.56;;;12.52;75.57
7376;BME280;3728;42.266;24.944;2023-02-26T01:10:50;98543.59;;;12.68;75.11
7376;BME280;3728;42.266;24.944;2023-02-26T01:13:17;98551.31;;;12.77;74.51
7376;BME280;3728;42.266;24.944;2023-02-26T01:15:49;98544.44;;;12.72;74.71
7376;BME280;3728;42.266;24.944;2023-02-26T01:18:25;98532.91;;;12.61;75.59
7376;BME280;3728;42.266;24.944;2023-02-26T01:21:02;98535.13;;;12.59;75.64
7376;BME280;3728;42.266;24.944;2023-02-26T01:23:34;98533.63;;;12.46;76.46
7376;BME280;3728;42.266;24.944;2023-02-26T01:26:14;98522.28;;;12.42;76.66
7376;BME280;3728;42.266;24.944;2023-02-26T01:28:51;98529.06;;;12.43;76.56
7376;BME280;3728;42.266;24.944;2023-02-26T01:31:32;98516.78;;;12.47;76.72
7376;BME280;3728;42.266;24.944;2023-02-26T01:34:43;98518.41;;;12.52;75.98
7376;BME280;3728;42.266;24.944;2023-02-26T01:37:55;98528.91;;;12.52;75.92
7376;BME280;3728;42.266;24.944;2023-02-26T01:40:39;98526.44;;;12.43;76.40
7376;BME280;3728;42.266;24.944;2023-02-26T01:44:21;98524.00;;;12.22;77.70
7376;BME280;3728;42.266;24.944;2023-02-26T01:49:18;98539.63;;;12.31;77.64
7376;BME280;3728;42.266;24.944;2023-02-26T01:54:34;98526.38;;;12.27;77.71
7376;BME280;3728;42.266;24.944;2023-02-26T01:57:09;98521.81;;;12.24;78.47
7376;BME280;3728;42.266;24.944;2023-02-26T01:59:41;98529.25;;;12.22;78.41
7376;BME280;3728;42.266;24.944;2023-02-26T02:02:12;98533.22;;;12.16;78.72
7376;BME280;3728;42.266;24.944;2023-02-26T02:04:44;98529.81;;;12.16;78.27
7376;BME280;3728;42.266;24.944;2023-02-26T02:07:13;98531.63;;;12.00;79.01
7376;BME280;3728;42.266;24.944;2023-02-26T02:09:41;98532.47;;;12.04;79.15
7376;BME280;3728;42.266;24.944;2023-02-26T02:23:59;98546.41;;;12.91;72.32
7376;BME280;3728;42.266;24.944;2023-02-26T02:26:39;98549.97;;;12.83;73.72
7376;BME280;3728;42.266;24.944;2023-02-26T02:32:37;98555.81;;;12.76;74.13
7376;BME280;3728;42.266;24.944;2023-02-26T02:35:31;98561.50;;;12.94;73.24
7376;BME280;3728;42.266;24.944;2023-02-26T02:38:19;98565.75;;;12.98;73.68
7376;BME280;3728;42.266;24.944;2023-02-26T02:41:01;98568.44;;;12.86;74.06
7376;BME280;3728;42.266;24.944;2023-02-26T02:43:33;98573.88;;;12.93;73.83
7376;BME280;3728;42.266;24.944;2023-02-26T02:46:07;98563.88;;;12.83;75.10
7376;BME280;3728;42.266;24.944;2023-02-26T02:49:07;98561.31;;;12.71;75.05
7376;BME280;3728;42.266;24.944;2023-02-26T02:51:47;98559.53;;;12.60;76.29
7376;BME280;3728;42.266;24.944;2023-02-26T02:54:48;98576.13;;;12.64;75.99
7376;BME280;3728;42.266;24.944;2023-02-26T02:57:27;98581.44;;;12.52;76.38
7376;BME280;3728;42.266;24.944;2023-02-26T03:00:08;98569.91;;;12.56;76.64
7376;BME280;3728;42.266;24.944;2023-02-26T03:03:06;98579.19;;;12.66;76.00
7376;BME280;3728;42.266;24.944;2023-02-26T03:05:44;98582.84;;;12.77;75.76
7376;BME280;3728;42.266;24.944;2023-02-26T03:08:15;98577.19;;;12.47;77.10
7376;BME280;3728;42.266;24.944;2023-02-26T03:10:46;98573.94;;;12.38;77.39
7376;BME280;3728;42.266;24.944;2023-02-26T03:13:20;98573.38;;;12.45;76.90
7376;BME280;3728;42.266;24.944;2023-02-26T03:26:49;98568.50;;;12.59;75.79
7376;BME280;3728;42.266;24.944;2023-02-26T03:29:41;98562.88;;;12.60;75.34
7376;BME280;3728;42.266;24.944;2023-02-26T03:32:30;98551.78;;;12.51;76.36
7376;BME280;3728;42.266;24.944;2023-02-26T03:35:40;98560.72;;;12.62;75.89
7376;BME280;3728;42.266;24.944;2023-02-26T03:38:22;98557.63;;;12.60;76.12
7376;BME280;3728;42.266;24.944;2023-02-26T03:41:02;98557.75;;;12.64;76.71
7376;BME280;3728;42.266;24.944;2023-02-26T03:44:14;98557.75;;;12.64;76.61
7376;BME280;3728;42.266;24.944;2023-02-26T03:46:53;98554.63;;;12.74;76.11
7376;BME280;3728;42.266;24.944;2023-02-26T03:49:29;98544.38;;;12.69;76.64
7376;BME280;3728;42.266;24.944;2023-02-26T03:52:00;98562.16;;;12.75;76.67
7376;BME280;3728;42.266;24.944;2023-02-26T03:54:54;98564.19;;;12.66;76.44
7376;BME280;3728;42.266;24.944;2023-02-26T03:57:43;98554.00;;;12.65;76.35
7376;BME280;3728;42.266;24.944;2023-02-26T04:00:36;98554.53;;;12.70;76.06
7376;BME280;3728;42.266;24.944;2023-02-26T04:05:42;98548.94;;;12.72;75.76
7376;BME280;3728;42.266;24.944;2023-02-26T04:08:13;98545.41;;;12.80;76.10
7376;BME280;3728;42.266;24.944;2023-02-26T04:10:45;98557.28;;;12.89;75.57
7376;BME280;3728;42.266;24.944;2023-02-26T04:13:19;98544.72;;;12.98;75.73
7376;BME280;3728;42.266;24.944;2023-02-26T04:15:47;98546.34;;;13.03;75.05
7376;BME280;3728;42.266;24.944;2023-02-26T04:18:15;98551.03;;;13.10;75.82
7376;BME280;3728;42.266;24.944;2023-02-26T04:20:43;98545.03;;;13.09;76.54
7376;BME280;3728;42.266;24.944;2023-02-26T04:23:10;98550.19;;;13.06;77.05
7376;BME280;3728;42.266;24.944;2023-02-26T04:25:38;98561.47;;;13.06;77.02
7376;BME280;3728;42.266;24.944;2023-02-26T04:28:07;98544.63;;;13.07;77.37
7376;BME280;3728;42.266;24.944;2023-02-26T04:30:34;98539.91;;;13.00;77.58
7376;BME280;3728;42.266;24.944;2023-02-26T04:33:04;98537.69;;;13.02;78.01
7376;BME280;3728;42.266;24.944;2023-02-26T04:35:32;98539.44;;;13.11;77.98
7376;BME280;3728;42.266;24.944;2023-02-26T04:37:59;98534.59;;;13.13;78.40
7376;BME280;3728;42.266;24.944;2023-02-26T04:40:27;98535.06;;;13.02;79.88
7376;BME280;3728;42.266;24.944;2023-02-26T04:42:55;98536.00;;;12.94;80.07
7376;BME280;3728;42.266;24.944;2023-02-26T04:45:25;98531.59;;;12.98;80.49
7376;BME280;3728;42.266;24.944;2023-02-26T04:47:54;98530.09;;;12.97;80.63
7376;BME280;3728;42.266;24.944;2023-02-26T04:50:25;98524.47;;;12.99;80.02
7376;BME280;3728;42.266;24.944;2023-02-26T04:52:52;98523.09;;;13.05;80.29
7376;BME280;3728;42.266;24.944;2023-02-26T04:55:20;98517.78;;;13.17;79.44
7376;BME280;3728;42.266;24.944;2023-02-26T04:57:48;98528.25;;;13.14;79.94
7376;BME280;3728;42.266;24.944;2023-02-26T05:00:20;98534.22;;;12.98;81.65
7376;BME280;3728;42.266;24.944;2023-02-26T05:02:48;98534.22;;;12.98;82.06
7376;BME280;3728;42.266;24.944;2023-02-26T05:05:15;98529.13;;;12.90;83.17
7376;BME280;3728;42.266;24.944;2023-02-26T05:07:43;98527.88;;;12.99;84.04
7376;BME280;3728;42.266;24.944;2023-02-26T05:10:13;98532.88;;;13.04;84.59
7376;BME280;3728;42.266;24.944;2023-02-26T05:12:40;98532.78;;;13.17;84.58
7376;BME280;3728;42.266;24.944;2023-02-26T05:15:08;98536.78;;;13.11;85.56
7376;BME280;3728;42.266;24.944;2023-02-26T05:17:36;98528.72;;;13.19;85.47
7376;BME280;3728;42.266;24.944;2023-02-26T05:20:05;98534.75;;;13.20;85.79
7376;BME280;3728;42.266;24.944;2023-02-26T05:22:37;98535.25;;;13.41;84.92
7376;BME280;3728;42.266;24.944;2023-02-26T05:25:06;98527.34;;;13.56;85.08
7376;BME280;3728;42.266;24.944;2023-02-26T05:27:34;98528.31;;;13.67;83.51
7376;BME280;3728;42.266;24.944;2023-02-26T05:30:03;98528.97;;;14.18;81.90
7376;BME280;3728;42.266;24.944;2023-02-26T05:32:32;98533.16;;;14.58;79.86
7376;BME280;3728;42.266;24.944;2023-02-26T05:35:00;98536.38;;;14.70;78.42
7376;BME280;3728;42.266;24.944;2023-02-26T05:37:27;98540.31;;;15.25;76.56
7376;BME280;3728;42.266;24.944;2023-02-26T05:39:55;98532.31;;;14.95;77.35
7376;BME280;3728;42.266;24.944;2023-02-26T05:42:23;98533.66;;;15.12;76.86
7376;BME280;3728;42.266;24.944;2023-02-26T05:44:51;98535.97;;;15.14;76.36
7376;BME280;3728;42.266;24.944;2023-02-26T05:47:19;98528.00;;;15.10;75.85
7376;BME280;3728;42.266;24.944;2023-02-26T05:49:46;98533.28;;;15.36;75.07
7376;BME280;3728;42.266;24.944;2023-02-26T05:52:14;98534.50;;;15.16;75.55
7376;BME280;3728;42.266;24.944;2023-02-26T05:54:42;98538.50;;;15.06;75.75
7376;BME280;3728;42.266;24.944;2023-02-26T05:57:10;98562.09;;;15.22;75.33
7376;BME280;3728;42.266;24.944;2023-02-26T05:59:39;98552.53;;;15.37;74.01
7376;BME280;3728;42.266;24.944;2023-02-26T06:02:06;98559.63;;;15.55;72.52
7376;BME280;3728;42.266;24.944;2023-02-26T06:04:34;98557.50;;;15.42;73.37
7376;BME280;3728;42.266;24.944;2023-02-26T06:07:02;98557.84;;;15.40;73.57
7376;BME280;3728;42.266;24.944;2023-02-26T06:09:30;98564.69;;;15.67;72.21
7376;BME280;3728;42.266;24.944;2023-02-26T06:11:57;98562.56;;;15.50;73.05
7376;BME280;3728;42.266;24.944;2023-02-26T06:14:25;98565.06;;;15.66;72.43
7376;BME280;3728;42.266;24.944;2023-02-26T06:16:52;98566.44;;;15.83;71.59
7376;BME280;3728;42.266;24.944;2023-02-26T06:19:21;98569.59;;;15.95;71.89
7376;BME280;3728;42.266;24.944;2023-02-26T06:21:48;98570.09;;;16.04;71.10
7376;BME280;3728;42.266;24.944;2023-02-26T06:24:16;98568.59;;;16.07;69.92
7376;BME280;3728;42.266;24.944;2023-02-26T06:26:43;98573.50;;;16.34;67.82
7376;BME280;3728;42.266;24.944;2023-02-26T06:29:11;98558.84;;;16.44;65.35
7376;BME280;3728;42.266;24.944;2023-02-26T06:31:38;98565.78;;;16.52;65.05
7376;BME280;3728;42.266;24.944;2023-02-26T06:34:06;98580.56;;;16.57;63.49
7376;BME280;3728;42.266;24.944;2023-02-26T06:36:33;98580.75;;;16.41;62.28
7376;BME280;3728;42.266;24.944;2023-02-26T06:39:01;98576.88;;;16.35;63.09
7376;BME280;3728;42.266;24.944;2023-02-26T06:41:29;98585.88;;;16.60;62.20
7376;BME280;3728;42.266;24.944;2023-02-26T06:43:57;98580.59;;;16.60;64.06
7376;BME280;3728;42.266;24.944;2023-02-26T06:46:24;98566.75;;;16.40;66.03
7376;BME280;3728;42.266;24.944;2023-02-26T06:48:53;98569.88;;;16.50;66.45
7376;BME280;3728;42.266;24.944;2023-02-26T06:51:20;98576.34;;;16.52;66.07
7376;BME280;3728;42.266;24.944;2023-02-26T06:53:48;98567.94;;;16.80;60.01
7376;BME280;3728;42.266;24.944;2023-02-26T06:56:15;98569.13;;;17.77;52.57
7376;BME280;3728;42.266;24.944;2023-02-26T06:58:43;98576.84;;;17.49;52.75
7376;BME280;3728;42.266;24.944;2023-02-26T07:01:10;98575.69;;;18.04;51.20
7376;BME280;3728;42.266;24.944;2023-02-26T07:03:38;98573.91;;;18.33;49.99
7376;BME280;3728;42.266;24.944;2023-02-26T07:06:06;98577.03;;;18.46;49.24
7376;BME280;3728;42.266;24.944;2023-02-26T07:08:52;98584.28;;;18.63;48.00
7376;BME280;3728;42.266;24.944;2023-02-26T07:11:20;98574.00;;;18.51;48.56
7376;BME280;3728;42.266;24.944;2023-02-26T07:13:48;98578.16;;;18.48;48.53
7376;BME280;3728;42.266;24.944;2023-02-26T07:16:17;98582.66;;;18.40;48.24
7376;BME280;3728;42.266;24.944;2023-02-26T07:18:45;98584.88;;;18.24;49.58
7376;BME280;3728;42.266;24.944;2023-02-26T07:21:12;98579.69;;;18.46;48.24
7376;BME280;3728;42.266;24.944;2023-02-26T07:23:40;98578.56;;;18.50;48.01
7376;BME280;3728;42.266;24.944;2023-02-26T07:26:11;98591.44;;;18.59;48.24
7376;BME280;3728;42.266;24.944;2023-02-26T07:28:39;98587.97;;;18.37;48.80
7376;BME280;3728;42.266;24.944;2023-02-26T07:31:07;98597.91;;;18.58;47.13
7376;BME280;3728;42.266;24.944;2023-02-26T07:33:35;98604.03;;;18.79;46.93
7376;BME280;3728;42.266;24.944;2023-02-26T07:36:04;98604.75;;;18.69;48.13
7376;BME280;3728;42.266;24.944;2023-02-26T07:38:32;98601.00;;;18.88;47.63
7376;BME280;3728;42.266;24.944;2023-02-26T07:40:59;98602.53;;;19.06;47.51
7376;BME280;3728;42.266;24.944;2023-02-26T07:43:27;98596.47;;;19.27;46.38
7376;BME280;3728;42.266;24.944;2023-02-26T07:45:54;98585.13;;;19.37;46.40
7376;BME280;3728;42.266;24.944;2023-02-26T07:48:22;98585.50;;;19.53;47.13
7376;BME280;3728;42.266;24.944;2023-02-26T07:50:53;98582.09;;;19.56;46.57
7376;BME280;3728;42.266;24.944;2023-02-26T07:53:21;98577.56;;;19.43;46.83
7376;BME280;3728;42.266;24.944;2023-02-26T07:55:49;98588.16;;;19.57;46.86
7376;BME280;3728;42.266;24.944;2023-02-26T07:58:17;98590.44;;;19.58;45.45
7376;BME280;3728;42.266;24.944;2023-02-26T08:00:44;98585.50;;;19.57;45.37
7376;BME280;3728;42.266;24.944;2023-02-26T08:03:12;98585.84;;;19.69;44.35
7376;BME280;3728;42.266;24.944;2023-02-26T08:05:41;98589.63;;;19.83;45.18
7376;BME280;3728;42.266;24.944;2023-02-26T08:08:08;98569.13;;;19.87;44.82
7376;BME280;3728;42.266;24.944;2023-02-26T08:10:36;98578.19;;;19.93;44.41
7376;BME280;3728;42.266;24.944;2023-02-26T08:13:07;98583.16;;;19.87;44.40
7376;BME280;3728;42.266;24.944;2023-02-26T08:15:35;98587.34;;;19.81;44.69
7376;BME280;3728;42.266;24.944;2023-02-26T08:18:03;98595.69;;;19.76;44.40
7376;BME280;3728;42.266;24.944;2023-02-26T08:20:31;98598.34;;;19.94;44.51
7376;BME280;3728;42.266;24.944;2023-02-26T08:22:59;98596.44;;;19.91;44.48
7376;BME280;3728;42.266;24.944;2023-02-26T08:25:28;98589.97;;;19.99;44.38
7376;BME280;3728;42.266;24.944;2023-02-26T08:27:58;98588.44;;;19.98;45.23
7376;BME280;3728;42.266;24.944;2023-02-26T08:30:27;98583.13;;;19.98;44.70
7376;BME280;3728;42.266;24.944;2023-02-26T08:32:55;98589.25;;;19.88;44.55
7376;BME280;3728;42.266;24.944;2023-02-26T08:35:23;98592.66;;;19.88;45.72
7376;BME280;3728;42.266;24.944;2023-02-26T08:37:50;98593.78;;;19.91;46.46
7376;BME280;3728;42.266;24.944;2023-02-26T08:40:18;98600.22;;;19.97;46.06
7376;BME280;3728;42.266;24.944;2023-02-26T08:42:46;98589.25;;;19.88;47.07
7376;BME280;3728;42.266;24.944;2023-02-26T08:45:14;98594.50;;;20.09;46.65
7376;BME280;3728;42.266;24.944;2023-02-26T08:47:41;98598.66;;;20.27;47.03
7376;BME280;3728;42.266;24.944;2023-02-26T08:50:24;98583.34;;;20.49;48.42
7376;BME280;3728;42.266;24.944;2023-02-26T08:52:53;98586.69;;;20.67;47.23
7376;BME280;3728;42.266;24.944;2023-02-26T08:55:21;98577.38;;;20.93;46.13
7376;BME280;3728;42.266;24.944;2023-02-26T08:57:49;98574.78;;;20.86;47.26
7376;BME280;3728;42.266;24.944;2023-02-26T09:00:19;98579.72;;;20.84;47.95
7376;BME280;3728;42.266;24.944;2023-02-26T09:02:50;98580.16;;;20.75;48.92
7376;BME280;3728;42.266;24.944;2023-02-26T09:05:17;98573.97;;;20.92;48.39
7376;BME280;3728;42.266;24.944;2023-02-26T09:07:45;98574.69;;;20.96;49.69
7376;BME280;3728;42.266;24.944;2023-02-26T09:10:14;98573.81;;;21.17;49.29
7376;BME280;3728;42.266;24.944;2023-02-26T09:12:43;98578.22;;;21.38;46.36
7376;BME280;3728;42.266;24.944;2023-02-26T09:15:11;98569.63;;;21.16;46.84
7376;BME280;3728;42.266;24.944;2023-02-26T09:17:41;98576.66;;;20.85;46.14
7376;BME280;3728;42.266;24.944;2023-02-26T09:20:10;98578.56;;;20.88;46.13
7376;BME280;3728;42.266;24.944;2023-02-26T09:22:42;98583.06;;;20.98;45.80
7376;BME280;3728;42.266;24.944;2023-02-26T09:25:10;98586.69;;;20.67;47.48
7376;BME280;3728;42.266;24.944;2023-02-26T09:27:38;98597.06;;;20.44;47.62
7376;BME280;3728;42.266;24.944;2023-02-26T09:30:06;98589.50;;;20.32;47.83
7376;BME280;3728;42.266;24.944;2023-02-26T09:32:34;98596.72;;;20.21;47.33
7376;BME280;3728;42.266;24.944;2023-02-26T09:35:04;98599.03;;;20.22;49.52
7376;BME280;3728;42.266;24.944;2023-02-26T09:37:31;98603.59;;;20.25;47.40
7376;BME280;3728;42.266;24.944;2023-02-26T09:40:00;98581.94;;;20.20;46.53
7376;BME280;3728;42.266;24.944;2023-02-26T09:42:47;98581.16;;;20.30;47.61
7376;BME280;3728;42.266;24.944;2023-02-26T09:45:33;98582.69;;;20.27;47.02
7376;BME280;3728;42.266;24.944;2023-02-26T09:48:05;98568.53;;;20.44;48.03
7376;BME280;3728;42.266;24.944;2023-02-26T09:50:47;98572.25;;;20.65;47.75
7376;BME280;3728;42.266;24.944;2023-02-26T09:53:32;98558.72;;;20.96;44.65
7376;BME280;3728;42.266;24.944;2023-02-26T09:56:07;98549.28;;;21.40;45.38
7376;BME280;3728;42.266;24.944;2023-02-26T09:58:42;98547.94;;;21.58;42.40
7376;BME280;3728;42.266;24.944;2023-02-26T10:09:57;98552.19;;;22.23;37.43
7376;BME280;3728;42.266;24.944;2023-02-26T10:12:39;98543.94;;;22.44;37.53
7376;BME280;3728;42.266;24.944;2023-02-26T10:20:57;98551.41;;;23.06;36.87
7376;BME280;3728;42.266;24.944;2023-02-26T10:23:41;98537.59;;;22.88;34.56
7376;BME280;3728;42.266;24.944;2023-02-26T10:26:38;98540.72;;;23.06;36.50
7376;BME280;3728;42.266;24.944;2023-02-26T10:29:44;98537.84;;;22.71;36.41
7376;BME280;3728;42.266;24.944;2023-02-26T10:35:21;98528.38;;;22.39;35.07
7376;BME280;3728;42.266;24.944;2023-02-26T10:37:59;98545.97;;;22.33;34.86
7376;BME280;3728;42.266;24.944;2023-02-26T10:40:50;98535.56;;;22.12;35.09
7376;BME280;3728;42.266;24.944;2023-02-26T10:52:17;98527.34;;;22.57;37.05
7376;BME280;3728;42.266;24.944;2023-02-26T10:58:03;98517.31;;;22.68;35.12
7376;BME280;3728;42.266;24.944;2023-02-26T11:00:42;98518.97;;;22.58;35.46
7376;BME280;3728;42.266;24.944;2023-02-26T11:03:36;98498.72;;;22.34;39.62
7376;BME280;3728;42.266;24.944;2023-02-26T11:06:06;98518.38;;;21.83;41.11
7376;BME280;3728;42.266;24.944;2023-02-26T11:08:46;98505.19;;;21.32;42.12
7376;BME280;3728;42.266;24.944;2023-02-26T11:14:06;98500.53;;;20.98;42.89
7376;BME280;3728;42.266;24.944;2023-02-26T11:16:41;98517.84;;;21.21;43.05
7376;BME280;3728;42.266;24.944;2023-02-26T11:19:15;98511.50;;;21.04;43.34
7376;BME280;3728;42.266;24.944;2023-02-26T11:21:46;98517.56;;;21.11;43.50
7376;BME280;3728;42.266;24.944;2023-02-26T11:24:26;98502.31;;;21.16;42.21
7376;BME280;3728;42.266;24.944;2023-02-26T11:27:07;98506.19;;;21.07;42.71
7376;BME280;3728;42.266;24.944;2023-02-26T11:29:46;98511.06;;;21.16;42.16
7376;BME280;3728;42.266;24.944;2023-02-26T11:32:21;98495.44;;;21.18;42.52
7376;BME280;3728;42.266;24.944;2023-02-26T11:34:55;98480.91;;;21.26;42.46
7376;BME280;3728;42.266;24.944;2023-02-26T11:37:30;98486.25;;;21.23;41.84
7376;BME280;3728;42.266;24.944;2023-02-26T11:40:12;98503.91;;;21.06;42.88
7376;BME280;3728;42.266;24.944;2023-02-26T11:42:52;98511.88;;;21.09;43.30
7376;BME280;3728;42.266;24.944;2023-02-26T11:45:22;98516.53;;;21.39;42.78
7376;BME280;3728;42.266;24.944;2023-02-26T11:47:58;98513.13;;;21.76;42.39
7376;BME280;3728;42.266;24.944;2023-02-26T11:50:46;98505.94;;;22.07;41.73
7376;BME280;3728;42.266;24.944;2023-02-26T11:53:24;98520.50;;;21.99;42.48
7376;BME280;3728;42.266;24.944;2023-02-26T11:56:12;98514.19;;;22.16;39.63
7376;BME280;3728;42.266;24.944;2023-02-26T11:58:44;98515.69;;;22.17;41.98
7376;BME280;3728;42.266;24.944;2023-02-26T12:01:15;98509.06;;;22.28;41.59
7376;BME280;3728;42.266;24.944;2023-02-26T12:03:47;98509.59;;;22.46;38.73
7376;BME280;3728;42.266;24.944;2023-02-26T12:06:22;98492.06;;;22.45;38.85
7376;BME280;3728;42.266;24.944;2023-02-26T12:08:53;98501.69;;;22.39;39.04
7376;BME280;3728;42.266;24.944;2023-02-26T12:11:42;98494.63;;;22.53;40.50
7376;BME280;3728;42.266;24.944;2023-02-26T12:14:25;98506.00;;;22.57;38.70
7376;BME280;3728;42.266;24.944;2023-02-26T12:55:22;98510.19;;;20.78;47.58
7376;BME280;3728;42.266;24.944;2023-02-26T13:05:20;98482.03;;;20.19;48.31
7376;BME280;3728;42.266;24.944;2023-02-26T13:14:29;98472.94;;;20.16;48.29
7376;BME280;3728;42.266;24.944;2023-02-26T13:20:25;98496.16;;;20.05;48.65
7376;BME280;3728;42.266;24.944;2023-02-26T13:23:14;98513.66;;;19.96;48.96
7376;BME280;3728;42.266;24.944;2023-02-26T13:25:53;98518.94;;;20.06;49.41
7376;BME280;3728;42.266;24.944;2023-02-26T13:34:14;98522.63;;;20.33;47.59
7376;BME280;3728;42.266;24.944;2023-02-26T13:36:47;98516.50;;;20.43;47.48
7376;BME280;3728;42.266;24.944;2023-02-26T13:45:22;98516.94;;;20.28;46.02
7376;BME280;3728;42.266;24.944;2023-02-26T13:51:38;98539.97;;;20.59;45.62
7376;BME280;3728;42.266;24.944;2023-02-26T14:05:07;98561.00;;;20.98;46.07
7376;BME280;3728;42.266;24.944;2023-02-26T14:10:58;98548.28;;;19.74;49.10
7376;BME280;3728;42.266;24.944;2023-02-26T14:13:37;98552.50;;;19.47;50.60
7376;BME280;3728;42.266;24.944;2023-02-26T14:16:21;98554.78;;;19.24;50.59
7376;BME280;3728;42.266;24.944;2023-02-26T14:21:56;98539.94;;;18.63;52.26
7376;BME280;3728;42.266;24.944;2023-02-26T14:24:52;98537.19;;;18.35;52.69
7376;BME280;3728;42.266;24.944;2023-02-26T14:27:47;98531.84;;;18.17;53.22
7376;BME280;3728;42.266;24.944;2023-02-26T14:30:33;98539.34;;;18.05;53.72
7376;BME280;3728;42.266;24.944;2023-02-26T14:33:08;98542.69;;;17.91;54.38
7376;BME280;3728;42.266;24.944;2023-02-26T14:36:20;98546.41;;;17.76;55.78
7376;BME280;3728;42.266;24.944;2023-02-26T14:39:30;98552.78;;;17.68;56.09
7376;BME280;3728;42.266;24.944;2023-02-26T14:42:11;98554.63;;;17.57;56.17
7376;BME280;3728;42.266;24.944;2023-02-26T14:44:56;98552.75;;;17.64;56.12
7376;BME280;3728;42.266;24.944;2023-02-26T14:47:44;98555.78;;;17.63;55.73
7376;BME280;3728;42.266;24.944;2023-02-26T14:50:21;98533.03;;;17.55;55.91
7376;BME280;3728;42.266;24.944;2023-02-26T14:56:06;98561.09;;;17.63;55.13
7376;BME280;3728;42.266;24.944;2023-02-26T15:06:49;98561.38;;;17.03;57.67
7376;BME280;3728;42.266;24.944;2023-02-26T15:21:16;98580.88;;;17.83;53.93
7376;BME280;3728;42.266;24.944;2023-02-26T15:23:59;98577.09;;;17.84;54.00
7376;BME280;3728;42.266;24.944;2023-02-26T15:26:32;98585.44;;;17.83;54.13
7376;BME280;3728;42.266;24.944;2023-02-26T15:29:06;98603.56;;;17.81;54.44
7376;BME280;3728;42.266;24.944;2023-02-26T15:31:59;98608.78;;;17.70;54.55
7376;BME280;3728;42.266;24.944;2023-02-26T15:34:53;98608.78;;;17.70;54.54
7376;BME280;3728;42.266;24.944;2023-02-26T15:37:26;98622.84;;;17.81;53.95
7376;BME280;3728;42.266;24.944;2023-02-26T15:39:59;98623.22;;;17.80;53.22
7376;BME280;3728;42.266;24.944;2023-02-26T15:42:34;98633.09;;;17.86;52.18
7376;BME280;3728;42.266;24.944;2023-02-26T15:45:19;98627.94;;;18.04;51.13
7376;BME280;3728;42.266;24.944;2023-02-26T15:48:21;98640.88;;;18.19;50.68
7376;BME280;3728;42.266;24.944;2023-02-26T15:51:02;98646.81;;;18.02;50.68
7376;BME280;3728;42.266;24.944;2023-02-26T15:53:39;98646.63;;;18.35;48.62
7376;BME280;3728;42.266;24.944;2023-02-26T15:56:19;98656.47;;;18.31;48.96
7376;BME280;3728;42.266;24.944;2023-02-26T15:59:21;98656.34;;;18.10;48.46
7376;BME280;3728;42.266;24.944;2023-02-26T16:01:53;98659.72;;;18.04;48.53
7376;BME280;3728;42.266;24.944;2023-02-26T16:04:23;98664.19;;;17.93;48.62
7376;BME280;3728;42.266;24.944;2023-02-26T16:06:56;98658.91;;;18.00;47.97
7376;BME280;3728;42.266;24.944;2023-02-26T16:09:37;98671.00;;;17.97;47.29
7376;BME280;3728;42.266;24.944;2023-02-26T16:12:10;98682.00;;;17.96;47.19
7376;BME280;3728;42.266;24.944;2023-02-26T16:14:53;98682.78;;;18.00;47.91
7376;BME280;3728;42.266;24.944;2023-02-26T16:17:28;98684.63;;;17.92;48.36
7376;BME280;3728;42.266;24.944;2023-02-26T16:20:02;98675.44;;;17.75;49.33
7376;BME280;3728;42.266;24.944;2023-02-26T16:22:38;98671.25;;;17.74;48.24
7376;BME280;3728;42.266;24.944;2023-02-26T16:25:17;98664.41;;;17.73;48.78
7376;BME280;3728;42.266;24.944;2023-02-26T16:28:28;98677.53;;;17.56;49.73
7376;BME280;3728;42.266;24.944;2023-02-26T16:31:03;98688.97;;;17.67;48.52
7376;BME280;3728;42.266;24.944;2023-02-26T16:33:39;98698.00;;;17.62;49.25
7376;BME280;3728;42.266;24.944;2023-02-26T16:36:13;98683.72;;;17.70;49.27
7376;BME280;3728;42.266;24.944;2023-02-26T16:38:49;98694.25;;;17.63;49.10
7376;BME280;3728;42.266;24.944;2023-02-26T16:41:33;98698.72;;;17.59;49.01
7376;BME280;3728;42.266;24.944;2023-02-26T16:46:58;98692.72;;;17.62;49.15
7376;BME280;3728;42.266;24.944;2023-02-26T16:49:33;98711.63;;;17.61;49.48
7376;BME280;3728;42.266;24.944;2023-02-26T16:52:04;98723.66;;;17.55;49.84
7376;BME280;3728;42.266;24.944;2023-02-26T16:54:35;98726.75;;;17.60;50.07
7376;BME280;3728;42.266;24.944;2023-02-26T16:57:29;98727.50;;;17.61;49.67
7376;BME280;3728;42.266;24.944;2023-02-26T17:00:06;98725.25;;;17.66;49.22
7376;BME280;3728;42.266;24.944;2023-02-26T17:02:46;98729.81;;;17.66;49.42